sensor_id;sensor_type;location;lat;lon;timestamp;pressure;altitude;pressure_sealevel;temperature;humidity
37202;BME280;37799;52.390;6.136;2023-03-04T00:01:49;102602.66;;;5.31;100.00
37202;BME280;37799;52.390;6.136;2023-03-04T00:04:15;102602.81;;;5.38;100.00
37202;BME280;37799;52.390;6.136;2023-03-04T00:06:40;102604.47;;;5.36;100.00
37202;BME280;37799;52.390;6.136;2023-03-04T00:09:05;102598.78;;;5.49;100.00
37202;BME280;37799;52.390;6.136;2023-03-04T00:11:31;102601.38;;;5.49;100.00
37202;BME280;37799;52.390;6.136;2023-03-04T00:13:56;102602.75;;;5.35;100.00
37202;BME280;37799;52.390;6.136;2023-03-04T00:16:22;102601.94;;;5.37;100.00
37202;BME280;37799;52.390;6.136;2023-03-04T00:18:51;102607.19;;;5.42;100.00
37202;BME280;37799;52.390;6.136;2023-03-04T00:21:16;102603.47;;;5.30;100.00
37202;BME280;37799;52.390;6.136;2023-03-04T00:23:43;102600.31;;;5.41;100.00
37202;BME280;37799;52.390;6.136;2023-03-04T00:26:08;102605.34;;;5.36;100.00
37202;BME280;37799;52.390;6.136;2023-03-04T00:28:34;102594.31;;;5.40;100.00
37202;BME280;37799;52.390;6.136;2023-03-04T00:30:59;102598.63;;;5.43;100.00
37202;BME280;37799;52.390;6.136;2023-03-04T00:33:25;102595.19;;;5.42;100.00
37202;BME280;37799;52.390;6.136;2023-03-04T00:35:50;102600.06;;;5.31;100.00
37202;BME280;37799;52.390;6.136;2023-03-04T00:38:15;102594.88;;;5.28;100.00
37202;BME280;37799;52.390;6.136;2023-03-04T00:40:41;102592.28;;;5.27;100.00
37202;BME280;37799;52.390;6.136;2023-03-04T00:43:06;102588.34;;;5.43;100.00
37202;BME280;37799;52.390;6.136;2023-03-04T00:45:31;102595.03;;;5.35;100.00
37202;BME280;37799;52.390;6.136;2023-03-04T00:47:56;102587.34;;;5.35;100.00
37202;BME280;37799;52.390;6.136;2023-03-04T00:50:22;102589.19;;;5.42;100.00
37202;BME280;37799;52.390;6.136;2023-03-04T00:52:47;102586.59;;;5.40;100.00
37202;BME280;37799;52.390;6.136;2023-03-04T00:55:12;102590.94;;;5.43;100.00
37202;BME280;37799;52.390;6.136;2023-03-04T00:57:38;102589.53;;;5.57;100.00
37202;BME280;37799;52.390;6.136;2023-03-04T01:00:04;102595.63;;;5.60;100.00
37202;BME280;37799;52.390;6.136;2023-03-04T01:02:29;102600.50;;;5.48;100.00
37202;BME280;37799;52.390;6.136;2023-03-04T01:04:55;102595.78;;;5.30;100.00
37202;BME280;37799;52.390;6.136;2023-03-04T01:07:20;102591.50;;;5.31;100.00
37202;BME280;37799;52.390;6.136;2023-03-04T01:09:45;102589.97;;;5.38;100.00
37202;BME280;37799;52.390;6.136;2023-03-04T01:12:10;102596.59;;;5.29;100.00
37202;BME280;37799;52.390;6.136;2023-03-04T01:14:36;102589.81;;;5.31;100.00
37202;BME280;37799;52.390;6.136;2023-03-04T01:17:01;102596.03;;;5.41;100.00
37202;BME280;37799;52.390;6.136;2023-03-04T01:19:27;102590.88;;;5.40;100.00
37202;BME280;37799;52.390;6.136;2023-03-04T01:21:52;102598.25;;;5.26;100.00
37202;BME280;37799;52.390;6.136;2023-03-04T01:24:17;102585.63;;;5.35;100.00
37202;BME280;37799;52.390;6.136;2023-03-04T01:26:43;102585.44;;;5.27;100.00
37202;BME280;37799;52.390;6.136;2023-03-04T01:29:08;102590.50;;;5.24;100.00
37202;BME280;37799;52.390;6.136;2023-03-04T01:31:33;102587.91;;;5.23;100.00
37202;BME280;37799;52.390;6.136;2023-03-04T01:33:59;102586.16;;;5.22;100.00
37202;BME280;37799;52.390;6.136;2023-03-04T01:36:24;102587.88;;;5.21;100.00
37202;BME280;37799;52.390;6.136;2023-03-04T01:38:49;102578.41;;;5.20;100.00
37202;BME280;37799;52.390;6.136;2023-03-04T01:41:16;102578.19;;;5.11;100.00
37202;BME280;37799;52.390;6.136;2023-03-04T01:43:43;102575.03;;;5.21;100.00
37202;BME280;37799;52.390;6.136;2023-03-04T01:46:10;102579.53;;;5.31;100.00
37202;BME280;37799;52.390;6.136;2023-03-04T01:48:39;102568.63;;;5.42;100.00
37202;BME280;37799;52.390;6.136;2023-03-04T01:51:09;102558.03;;;5.26;100.00
37202;BME280;37799;52.390;6.136;2023-03-04T01:53:36;102561.34;;;5.22;100.00
37202;BME280;37799;52.390;6.136;2023-03-04T01:56:18;102552.25;;;5.35;100.00
37202;BME280;37799;52.390;6.136;2023-03-04T01:58:44;102555.69;;;5.37;100.00
37202;BME280;37799;52.390;6.136;2023-03-04T02:01:16;102558.09;;;5.29;100.00
37202;BME280;37799;52.390;6.136;2023-03-04T02:03:41;102550.66;;;5.42;100.00
37202;BME280;37799;52.390;6.136;2023-03-04T02:06:07;102547.00;;;5.32;100.00
37202;BME280;37799;52.390;6.136;2023-03-04T02:08:33;102543.78;;;5.41;100.00
37202;BME280;37799;52.390;6.136;2023-03-04T02:10:58;102542.81;;;5.36;100.00
37202;BME280;37799;52.390;6.136;2023-03-04T02:13:24;102541.97;;;5.35;100.00
37202;BME280;37799;52.390;6.136;2023-03-04T02:15:49;102537.41;;;5.23;100.00
37202;BME280;37799;52.390;6.136;2023-03-04T02:18:20;102537.81;;;5.42;100.00
37202;BME280;37799;52.390;6.136;2023-03-04T02:21:04;102529.53;;;5.17;100.00
37202;BME280;37799;52.390;6.136;2023-03-04T02:26:29;102527.69;;;5.10;100.00
37202;BME280;37799;52.390;6.136;2023-03-04T02:28:56;102528.44;;;5.08;100.00
37202;BME280;37799;52.390;6.136;2023-03-04T02:31:32;102526.06;;;5.15;100.00
37202;BME280;37799;52.390;6.136;2023-03-04T02:34:00;102521.91;;;5.20;100.00
37202;BME280;37799;52.390;6.136;2023-03-04T02:36:26;102527.25;;;5.29;100.00
37202;BME280;37799;52.390;6.136;2023-03-04T02:38:53;102522.59;;;5.13;100.00
37202;BME280;37799;52.390;6.136;2023-03-04T02:41:22;102523.44;;;5.12;100.00
37202;BME280;37799;52.390;6.136;2023-03-04T02:43:50;102519.09;;;5.10;100.00
37202;BME280;37799;52.390;6.136;2023-03-04T02:46:16;102514.91;;;5.13;100.00
37202;BME280;37799;52.390;6.136;2023-03-04T02:48:41;102518.53;;;5.21;100.00
37202;BME280;37799;52.390;6.136;2023-03-04T02:51:07;102518.41;;;5.17;100.00
37202;BME280;37799;52.390;6.136;2023-03-04T02:53:32;102512.34;;;5.13;100.00
37202;BME280;37799;52.390;6.136;2023-03-04T02:55:57;102514.31;;;5.25;100.00
37202;BME280;37799;52.390;6.136;2023-03-04T02:58:23;102505.44;;;5.11;100.00
37202;BME280;37799;52.390;6.136;2023-03-04T03:00:48;102507.13;;;5.10;100.00
37202;BME280;37799;52.390;6.136;2023-03-04T03:03:13;102506.50;;;5.20;100.00
37202;BME280;37799;52.390;6.136;2023-03-04T03:05:39;102506.63;;;5.25;100.00
37202;BME280;37799;52.390;6.136;2023-03-04T03:08:05;102504.38;;;5.40;100.00
37202;BME280;37799;52.390;6.136;2023-03-04T03:10:30;102506.88;;;5.36;100.00
37202;BME280;37799;52.390;6.136;2023-03-04T03:12:55;102493.22;;;5.38;100.00
37202;BME280;37799;52.390;6.136;2023-03-04T03:15:21;102492.19;;;5.31;100.00
37202;BME280;37799;52.390;6.136;2023-03-04T03:17:46;102491.19;;;5.23;100.00
37202;BME280;37799;52.390;6.136;2023-03-04T03:20:12;102496.94;;;5.13;100.00
37202;BME280;37799;52.390;6.136;2023-03-04T03:22:39;102486.56;;;5.09;100.00
37202;BME280;37799;52.390;6.136;2023-03-04T03:25:05;102488.09;;;5.02;100.00
37202;BME280;37799;52.390;6.136;2023-03-04T03:27:31;102479.81;;;5.14;100.00
37202;BME280;37799;52.390;6.136;2023-03-04T03:29:56;102479.63;;;5.06;100.00
37202;BME280;37799;52.390;6.136;2023-03-04T03:32:21;102483.94;;;5.07;100.00
37202;BME280;37799;52.390;6.136;2023-03-04T03:34:47;102482.56;;;5.21;100.00
37202;BME280;37799;52.390;6.136;2023-03-04T03:37:12;102480.56;;;5.08;100.00
37202;BME280;37799;52.390;6.136;2023-03-04T03:39:38;102478.97;;;5.13;100.00
37202;BME280;37799;52.390;6.136;2023-03-04T03:42:03;102484.22;;;5.19;100.00
37202;BME280;37799;52.390;6.136;2023-03-04T03:44:29;102480.06;;;5.24;100.00
37202;BME280;37799;52.390;6.136;2023-03-04T03:46:54;102482.50;;;5.20;100.00
37202;BME280;37799;52.390;6.136;2023-03-04T03:49:19;102478.34;;;5.23;100.00
37202;BME280;37799;52.390;6.136;2023-03-04T03:51:45;102484.94;;;5.12;100.00
37202;BME280;37799;52.390;6.136;2023-03-04T03:54:10;102482.31;;;5.11;100.00
37202;BME280;37799;52.390;6.136;2023-03-04T03:56:35;102483.34;;;5.19;100.00
37202;BME280;37799;52.390;6.136;2023-03-04T03:59:00;102481.28;;;5.02;100.00
37202;BME280;37799;52.390;6.136;2023-03-04T04:01:26;102469.19;;;4.97;100.00
37202;BME280;37799;52.390;6.136;2023-03-04T04:03:51;102475.84;;;4.90;100.00
37202;BME280;37799;52.390;6.136;2023-03-04T04:06:16;102468.06;;;4.86;100.00
37202;BME280;37799;52.390;6.136;2023-03-04T04:08:42;102474.03;;;4.85;100.00
37202;BME280;37799;52.390;6.136;2023-03-04T04:11:11;102475.84;;;4.90;100.00
37202;BME280;37799;52.390;6.136;2023-03-04T04:13:37;102472.31;;;4.85;100.00
37202;BME280;37799;52.390;6.136;2023-03-04T04:16:03;102470.66;;;4.87;100.00
37202;BME280;37799;52.390;6.136;2023-03-04T04:18:28;102462.84;;;4.83;100.00
37202;BME280;37799;52.390;6.136;2023-03-04T04:20:53;102458.47;;;4.79;100.00
37202;BME280;37799;52.390;6.136;2023-03-04T04:23:19;102463.84;;;4.89;100.00
37202;BME280;37799;52.390;6.136;2023-03-04T04:25:45;102469.78;;;4.87;100.00
37202;BME280;37799;52.390;6.136;2023-03-04T04:28:10;102458.94;;;4.98;100.00
37202;BME280;37799;52.390;6.136;2023-03-04T04:30:35;102459.22;;;5.11;100.00
37202;BME280;37799;52.390;6.136;2023-03-04T04:33:00;102457.84;;;4.89;100.00
37202;BME280;37799;52.390;6.136;2023-03-04T04:35:29;102457.06;;;4.91;100.00
37202;BME280;37799;52.390;6.136;2023-03-04T04:37:54;102467.25;;;4.88;100.00
37202;BME280;37799;52.390;6.136;2023-03-04T04:40:20;102463.50;;;4.74;100.00
37202;BME280;37799;52.390;6.136;2023-03-04T04:42:45;102463.50;;;4.74;100.00
37202;BME280;37799;52.390;6.136;2023-03-04T04:45:10;102466.06;;;4.74;100.00
37202;BME280;37799;52.390;6.136;2023-03-04T04:47:36;102466.13;;;4.77;100.00
37202;BME280;37799;52.390;6.136;2023-03-04T04:50:01;102458.63;;;4.85;100.00
37202;BME280;37799;52.390;6.136;2023-03-04T04:52:27;102460.44;;;4.90;100.00
37202;BME280;37799;52.390;6.136;2023-03-04T04:54:52;102458.44;;;4.77;100.00
37202;BME280;37799;52.390;6.136;2023-03-04T04:57:17;102466.38;;;4.88;100.00
37202;BME280;37799;52.390;6.136;2023-03-04T04:59:42;102462.91;;;4.86;100.00
37202;BME280;37799;52.390;6.136;2023-03-04T05:02:08;102457.22;;;4.97;100.00
37202;BME280;37799;52.390;6.136;2023-03-04T05:04:33;102465.63;;;4.92;100.00
37202;BME280;37799;52.390;6.136;2023-03-04T05:06:58;102463.88;;;4.91;100.00
37202;BME280;37799;52.390;6.136;2023-03-04T05:09:23;102456.16;;;4.89;100.00
37202;BME280;37799;52.390;6.136;2023-03-04T05:11:49;102463.78;;;4.86;100.00
37202;BME280;37799;52.390;6.136;2023-03-04T05:14:14;102462.91;;;4.86;100.00
37202;BME280;37799;52.390;6.136;2023-03-04T05:16:39;102457.91;;;4.92;100.00
37202;BME280;37799;52.390;6.136;2023-03-04T05:19:05;102466.41;;;4.89;100.00
37202;BME280;37799;52.390;6.136;2023-03-04T05:21:31;102466.72;;;5.03;100.00
37202;BME280;37799;52.390;6.136;2023-03-04T05:23:56;102467.56;;;5.02;100.00
37202;BME280;37799;52.390;6.136;2023-03-04T05:26:21;102459.81;;;4.99;100.00
37202;BME280;37799;52.390;6.136;2023-03-04T05:28:47;102466.50;;;4.94;100.00
37202;BME280;37799;52.390;6.136;2023-03-04T05:31:12;102468.28;;;4.95;100.00
37202;BME280;37799;52.390;6.136;2023-03-04T05:33:38;102468.13;;;4.89;100.00
37202;BME280;37799;52.390;6.136;2023-03-04T05:36:04;102463.84;;;4.89;100.00
37202;BME280;37799;52.390;6.136;2023-03-04T05:38:30;102463.03;;;4.92;100.00
37202;BME280;37799;52.390;6.136;2023-03-04T05:40:57;102463.16;;;4.95;100.00
37202;BME280;37799;52.390;6.136;2023-03-04T05:43:23;102455.34;;;4.92;100.00
37202;BME280;37799;52.390;6.136;2023-03-04T05:45:49;102461.31;;;4.91;100.00
37202;BME280;37799;52.390;6.136;2023-03-04T05:48:14;102453.78;;;4.97;100.00
37202;BME280;37799;52.390;6.136;2023-03-04T05:50:40;102461.31;;;4.91;100.00
37202;BME280;37799;52.390;6.136;2023-03-04T05:53:05;102467.47;;;4.97;100.00
37202;BME280;37799;52.390;6.136;2023-03-04T05:55:30;102460.88;;;5.09;100.00
37202;BME280;37799;52.390;6.136;2023-03-04T05:57:56;102463.50;;;5.10;100.00
37202;BME280;37799;52.390;6.136;2023-03-04T06:00:22;102461.56;;;5.01;100.00
37202;BME280;37799;52.390;6.136;2023-03-04T06:02:48;102459.19;;;5.09;100.00
37202;BME280;37799;52.390;6.136;2023-03-04T06:05:14;102466.59;;;4.97;100.00
37202;BME280;37799;52.390;6.136;2023-03-04T06:07:40;102463.22;;;4.98;100.00
37202;BME280;37799;52.390;6.136;2023-03-04T06:10:07;102456.34;;;4.97;100.00
37202;BME280;37799;52.390;6.136;2023-03-04T06:12:33;102456.56;;;5.08;100.00
37202;BME280;37799;52.390;6.136;2023-03-04T06:14:58;102460.03;;;5.08;100.00
37202;BME280;37799;52.390;6.136;2023-03-04T06:17:24;102461.84;;;5.14;100.00
37202;BME280;37799;52.390;6.136;2023-03-04T06:19:49;102457.97;;;5.32;100.00
37202;BME280;37799;52.390;6.136;2023-03-04T06:22:14;102461.00;;;5.15;100.00
37202;BME280;37799;52.390;6.136;2023-03-04T06:24:40;102462.34;;;4.97;100.00
37202;BME280;37799;52.390;6.136;2023-03-04T06:27:05;102463.22;;;4.98;100.00
37202;BME280;37799;52.390;6.136;2023-03-04T06:29:30;102462.50;;;5.05;100.00
37202;BME280;37799;52.390;6.136;2023-03-04T06:31:56;102460.78;;;5.06;100.00
37202;BME280;37799;52.390;6.136;2023-03-04T06:34:21;102463.81;;;4.88;100.00
37202;BME280;37799;52.390;6.136;2023-03-04T06:36:46;102458.13;;;5.01;100.00
37202;BME280;37799;52.390;6.136;2023-03-04T06:39:12;102465.34;;;4.81;100.00
37202;BME280;37799;52.390;6.136;2023-03-04T06:41:37;102466.16;;;4.79;100.00
37202;BME280;37799;52.390;6.136;2023-03-04T06:44:03;102465.31;;;4.80;100.00
37202;BME280;37799;52.390;6.136;2023-03-04T06:46:28;102466.16;;;4.79;100.00
37202;BME280;37799;52.390;6.136;2023-03-04T06:48:54;102472.25;;;4.82;100.00
37202;BME280;37799;52.390;6.136;2023-03-04T06:51:19;102471.59;;;4.91;100.00
37202;BME280;37799;52.390;6.136;2023-03-04T06:53:44;102467.16;;;4.84;100.00
37202;BME280;37799;52.390;6.136;2023-03-04T06:56:12;102464.66;;;4.87;100.00
37202;BME280;37799;52.390;6.136;2023-03-04T06:58:37;102470.88;;;4.96;100.00
37202;BME280;37799;52.390;6.136;2023-03-04T07:03:38;102476.16;;;5.04;100.00
37202;BME280;37799;52.390;6.136;2023-03-04T07:06:04;102476.28;;;5.09;100.00
37202;BME280;37799;52.390;6.136;2023-03-04T07:08:29;102481.75;;;5.22;100.00
37202;BME280;37799;52.390;6.136;2023-03-04T07:10:54;102479.22;;;5.25;100.00
37202;BME280;37799;52.390;6.136;2023-03-04T07:13:19;102482.91;;;5.37;100.00
37202;BME280;37799;52.390;6.136;2023-03-04T07:15:45;102478.94;;;5.51;100.00
37202;BME280;37799;52.390;6.136;2023-03-04T07:18:10;102485.81;;;5.52;100.00
37202;BME280;37799;52.390;6.136;2023-03-04T07:20:35;102485.81;;;5.52;100.00
37202;BME280;37799;52.390;6.136;2023-03-04T07:23:01;102485.47;;;5.37;100.00
37202;BME280;37799;52.390;6.136;2023-03-04T07:25:26;102481.91;;;5.71;100.00
37202;BME280;37799;52.390;6.136;2023-03-04T07:27:52;102479.94;;;5.59;100.00
37202;BME280;37799;52.390;6.136;2023-03-04T07:30:18;102476.59;;;5.61;100.00
37202;BME280;37799;52.390;6.136;2023-03-04T07:32:43;102480.97;;;5.67;100.00
37202;BME280;37799;52.390;6.136;2023-03-04T07:35:09;102484.31;;;5.63;100.00
37202;BME280;37799;52.390;6.136;2023-03-04T07:37:34;102485.16;;;5.62;100.00
37202;BME280;37799;52.390;6.136;2023-03-04T07:39:59;102478.28;;;5.61;100.00
37202;BME280;37799;52.390;6.136;2023-03-04T07:42:25;102478.53;;;5.73;100.00
37202;BME280;37799;52.390;6.136;2023-03-04T07:44:50;102489.03;;;5.85;100.00
37202;BME280;37799;52.390;6.136;2023-03-04T07:47:15;102485.13;;;6.01;100.00
37202;BME280;37799;52.390;6.136;2023-03-04T07:49:41;102478.31;;;6.05;100.00
37202;BME280;37799;52.390;6.136;2023-03-04T07:52:06;102484.38;;;6.07;100.00
37202;BME280;37799;52.390;6.136;2023-03-04T07:54:31;102486.91;;;6.05;100.00
37202;BME280;37799;52.390;6.136;2023-03-04T07:56:57;102493.25;;;6.24;100.00
37202;BME280;37799;52.390;6.136;2023-03-04T07:59:22;102483.97;;;6.32;100.00
37202;BME280;37799;52.390;6.136;2023-03-04T08:01:48;102487.44;;;6.34;100.00
37202;BME280;37799;52.390;6.136;2023-03-04T08:04:13;102490.78;;;6.29;100.00
37202;BME280;37799;52.390;6.136;2023-03-04T08:06:40;102493.66;;;6.45;100.00
37202;BME280;37799;52.390;6.136;2023-03-04T08:09:06;102492.84;;;6.49;100.00
37202;BME280;37799;52.390;6.136;2023-03-04T08:11:34;102489.50;;;6.52;100.00
37202;BME280;37799;52.390;6.136;2023-03-04T08:14:00;102497.53;;;6.72;100.00
37202;BME280;37799;52.390;6.136;2023-03-04T08:16:26;102498.56;;;6.82;100.00
37202;BME280;37799;52.390;6.136;2023-03-04T08:18:53;102494.25;;;6.82;100.00
37202;BME280;37799;52.390;6.136;2023-03-04T08:21:20;102496.91;;;6.87;100.00
37202;BME280;37799;52.390;6.136;2023-03-04T08:23:47;102497.88;;;6.93;100.00
37202;BME280;37799;52.390;6.136;2023-03-04T08:26:25;102504.09;;;7.06;100.00
37202;BME280;37799;52.390;6.136;2023-03-04T08:28:51;102500.88;;;7.21;100.00
37202;BME280;37799;52.390;6.136;2023-03-04T08:31:17;102499.19;;;7.24;100.00
37202;BME280;37799;52.390;6.136;2023-03-04T08:33:43;102499.03;;;7.14;100.00
37202;BME280;37799;52.390;6.136;2023-03-04T08:36:09;102501.75;;;7.23;100.00
37202;BME280;37799;52.390;6.136;2023-03-04T08:38:35;102506.38;;;7.45;100.00
37202;BME280;37799;52.390;6.136;2023-03-04T08:41:00;102502.03;;;7.43;100.00
37202;BME280;37799;52.390;6.136;2023-03-04T08:43:27;102504.75;;;7.55;100.00
37202;BME280;37799;52.390;6.136;2023-03-04T08:45:53;102496.59;;;7.88;100.00
37202;BME280;37799;52.390;6.136;2023-03-04T08:48:19;102492.56;;;8.11;100.00
37202;BME280;37799;52.390;6.136;2023-03-04T08:50:46;102500.22;;;8.05;100.00
37202;BME280;37799;52.390;6.136;2023-03-04T08:53:12;102494.13;;;7.97;100.00
37202;BME280;37799;52.390;6.136;2023-03-04T08:55:39;102495.13;;;8.10;100.00
37202;BME280;37799;52.390;6.136;2023-03-04T08:58:04;102495.72;;;7.86;100.00
37202;BME280;37799;52.390;6.136;2023-03-04T09:00:30;102494.13;;;7.97;100.00
37202;BME280;37799;52.390;6.136;2023-03-04T09:02:55;102489.81;;;7.96;100.00
37202;BME280;37799;52.390;6.136;2023-03-04T09:05:21;102489.81;;;7.97;100.00
37202;BME280;37799;52.390;6.136;2023-03-04T09:07:46;102496.75;;;8.03;100.00
37202;BME280;37799;52.390;6.136;2023-03-04T09:10:11;102498.47;;;8.01;100.00
37202;BME280;37799;52.390;6.136;2023-03-04T09:12:37;102492.69;;;8.23;100.00
37202;BME280;37799;52.390;6.136;2023-03-04T09:15:03;102492.97;;;8.51;100.00
37202;BME280;37799;52.390;6.136;2023-03-04T09:17:30;102494.69;;;8.49;100.00
37202;BME280;37799;52.390;6.136;2023-03-04T09:19:56;102490.09;;;8.23;100.00
37202;BME280;37799;52.390;6.136;2023-03-04T09:22:21;102488.25;;;8.09;100.00
37202;BME280;37799;52.390;6.136;2023-03-04T09:24:46;102491.44;;;7.89;100.00
37202;BME280;37799;52.390;6.136;2023-03-04T09:27:12;102484.44;;;7.79;100.00
37202;BME280;37799;52.390;6.136;2023-03-04T09:29:37;102506.66;;;7.68;100.00
37202;BME280;37799;52.390;6.136;2023-03-04T09:32:02;102502.31;;;7.65;100.00
37202;BME280;37799;52.390;6.136;2023-03-04T09:34:28;102493.91;;;7.80;100.00
37202;BME280;37799;52.390;6.136;2023-03-04T09:36:53;102490.38;;;7.71;100.00
37202;BME280;37799;52.390;6.136;2023-03-04T09:39:18;102495.56;;;7.74;100.00
37202;BME280;37799;52.390;6.136;2023-03-04T09:41:48;102493.81;;;7.71;100.00
37202;BME280;37799;52.390;6.136;2023-03-04T09:44:22;102499.41;;;7.39;100.00
37202;BME280;37799;52.390;6.136;2023-03-04T09:46:49;102501.97;;;7.38;100.00
37202;BME280;37799;52.390;6.136;2023-03-04T09:49:15;102495.78;;;7.25;100.00
37202;BME280;37799;52.390;6.136;2023-03-04T09:52:13;102487.88;;;7.15;100.00
37202;BME280;37799;52.390;6.136;2023-03-04T10:00:41;102498.72;;;7.53;100.00
37202;BME280;37799;52.390;6.136;2023-03-04T10:06:22;102492.41;;;7.96;100.00
37202;BME280;37799;52.390;6.136;2023-03-04T10:10:55;102485.38;;;8.68;100.00
37202;BME280;37799;52.390;6.136;2023-03-04T10:13:30;102490.63;;;8.78;100.00
37202;BME280;37799;52.390;6.136;2023-03-04T10:16:00;102486.44;;;8.97;100.00
37202;BME280;37799;52.390;6.136;2023-03-04T10:18:34;102488.13;;;8.91;100.00
37202;BME280;37799;52.390;6.136;2023-03-04T10:21:10;102484.97;;;9.31;100.00
37202;BME280;37799;52.390;6.136;2023-03-04T10:23:38;102478.19;;;9.58;100.00
37202;BME280;37799;52.390;6.136;2023-03-04T10:26:14;102485.94;;;9.59;100.00
37202;BME280;37799;52.390;6.136;2023-03-04T10:28:40;102490.97;;;9.26;100.00
37202;BME280;37799;52.390;6.136;2023-03-04T10:31:32;102490.97;;;9.26;100.00
37202;BME280;37799;52.390;6.136;2023-03-04T10:34:02;102477.78;;;8.88;100.00
37202;BME280;37799;52.390;6.136;2023-03-04T10:38:56;102480.38;;;8.86;100.00
37202;BME280;37799;52.390;6.136;2023-03-04T10:41:24;102484.66;;;8.85;100.00
37202;BME280;37799;52.390;6.136;2023-03-04T10:44:16;102487.16;;;8.76;100.00
37202;BME280;37799;52.390;6.136;2023-03-04T10:46:44;102495.81;;;8.81;100.00
37202;BME280;37799;52.390;6.136;2023-03-04T10:49:11;102488.69;;;8.54;100.00
37202;BME280;37799;52.390;6.136;2023-03-04T10:51:43;102482.44;;;8.33;100.00
37202;BME280;37799;52.390;6.136;2023-03-04T10:54:23;102488.56;;;8.38;100.00
37202;BME280;37799;52.390;6.136;2023-03-04T10:57:22;102479.94;;;8.36;100.00
37202;BME280;37799;52.390;6.136;2023-03-04T10:59:47;102479.13;;;8.41;100.00
37202;BME280;37799;52.390;6.136;2023-03-04T11:05:21;102478.53;;;8.73;100.00
37202;BME280;37799;52.390;6.136;2023-03-04T11:07:51;102477.72;;;8.81;100.00
37202;BME280;37799;52.390;6.136;2023-03-04T11:10:22;102488.91;;;8.79;100.00
37202;BME280;37799;52.390;6.136;2023-03-04T11:12:49;102486.06;;;8.47;100.00
37202;BME280;37799;52.390;6.136;2023-03-04T11:15:23;102487.53;;;8.25;100.00
37202;BME280;37799;52.390;6.136;2023-03-04T11:17:55;102492.44;;;8.02;100.00
37202;BME280;37799;52.390;6.136;2023-03-04T11:22:56;102488.88;;;7.91;100.00
37202;BME280;37799;52.390;6.136;2023-03-04T11:25:27;102473.53;;;8.02;100.00
37202;BME280;37799;52.390;6.136;2023-03-04T11:28:00;102476.97;;;8.02;100.00
37202;BME280;37799;52.390;6.136;2023-03-04T11:30:47;102478.50;;;7.85;100.00
37202;BME280;37799;52.390;6.136;2023-03-04T11:33:49;102472.81;;;8.16;100.00
37202;BME280;37799;52.390;6.136;2023-03-04T11:36:43;102477.97;;;8.15;100.00
37202;BME280;37799;52.390;6.136;2023-03-04T11:39:23;102475.13;;;7.92;100.00
37202;BME280;37799;52.390;6.136;2023-03-04T11:41:57;102468.94;;;7.75;100.00
37202;BME280;37799;52.390;6.136;2023-03-04T11:44:25;102466.47;;;7.85;100.00
37202;BME280;37799;52.390;6.136;2023-03-04T11:50:03;102464.59;;;7.72;100.00
37202;BME280;37799;52.390;6.136;2023-03-04T11:52:59;102462.00;;;7.71;100.00
37202;BME280;37799;52.390;6.136;2023-03-04T11:55:44;102470.69;;;7.80;100.00
37202;BME280;37799;52.390;6.136;2023-03-04T12:21:04;102456.13;;;8.72;100.00
37202;BME280;37799;52.390;6.136;2023-03-04T12:26:46;102451.78;;;8.63;100.00
37202;BME280;37799;52.390;6.136;2023-03-04T12:29:40;102454.44;;;8.74;100.00
37202;BME280;37799;52.390;6.136;2023-03-04T12:37:38;102447.47;;;8.64;100.00
37202;BME280;37799;52.390;6.136;2023-03-04T12:40:36;102442.81;;;8.27;100.00
37202;BME280;37799;52.390;6.136;2023-03-04T12:46:17;102432.75;;;8.52;100.00
37202;BME280;37799;52.390;6.136;2023-03-04T12:50:06;102432.88;;;8.70;100.00
37202;BME280;37799;52.390;6.136;2023-03-04T12:52:05;102427.84;;;8.89;100.00
37202;BME280;37799;52.390;6.136;2023-03-04T12:54:48;102429.66;;;9.05;100.00
37202;BME280;37799;52.390;6.136;2023-03-04T12:57:20;102414.16;;;9.05;100.00
37202;BME280;37799;52.390;6.136;2023-03-04T13:03:07;102427.00;;;8.88;100.00
37202;BME280;37799;52.390;6.136;2023-03-04T13:14:07;102404.81;;;8.10;100.00
37202;BME280;37799;52.390;6.136;2023-03-04T13:16:51;102403.09;;;8.10;100.00
37202;BME280;37799;52.390;6.136;2023-03-04T13:22:01;102402.38;;;8.26;100.00
37202;BME280;37799;52.390;6.136;2023-03-04T13:24:47;102398.34;;;8.57;100.00
37202;BME280;37799;52.390;6.136;2023-03-04T13:27:43;102389.91;;;8.81;100.00
37202;BME280;37799;52.390;6.136;2023-03-04T13:38:22;102390.22;;;9.49;100.00
37202;BME280;37799;52.390;6.136;2023-03-04T13:43:53;102398.84;;;9.38;100.00
37202;BME280;37799;52.390;6.136;2023-03-04T13:51:34;102394.44;;;9.22;100.00
37202;BME280;37799;52.390;6.136;2023-03-04T13:56:48;102387.53;;;9.13;100.00
37202;BME280;37799;52.390;6.136;2023-03-04T13:59:26;102395.28;;;9.18;100.00
37202;BME280;37799;52.390;6.136;2023-03-04T14:01:57;102384.00;;;8.99;100.00
37202;BME280;37799;52.390;6.136;2023-03-04T14:04:32;102383.88;;;8.79;100.00
37202;BME280;37799;52.390;6.136;2023-03-04T14:07:00;102386.47;;;8.84;100.00
37202;BME280;37799;52.390;6.136;2023-03-04T14:09:31;102383.00;;;8.77;100.00
37202;BME280;37799;52.390;6.136;2023-03-04T14:11:58;102386.31;;;8.58;100.00
37202;BME280;37799;52.390;6.136;2023-03-04T14:14:29;102383.72;;;8.56;100.00
37202;BME280;37799;52.390;6.136;2023-03-04T14:16:58;102374.22;;;8.51;100.00
37202;BME280;37799;52.390;6.136;2023-03-04T14:19:25;102373.38;;;8.53;100.00
37202;BME280;37799;52.390;6.136;2023-03-04T14:21:52;102372.50;;;8.50;100.00
37202;BME280;37799;52.390;6.136;2023-03-04T14:24:19;102370.84;;;8.61;100.00
37202;BME280;37799;52.390;6.136;2023-03-04T14:26:46;102365.84;;;8.87;100.00
37202;BME280;37799;52.390;6.136;2023-03-04T14:29:24;102370.06;;;8.73;100.00
37202;BME280;37799;52.390;6.136;2023-03-04T14:31:50;102373.41;;;8.58;100.00